sensor_id;sensor_type;location;lat;lon;timestamp;pressure;altitude;pressure_sealevel;temperature;humidity
64368;BME280;50692;53.314;-6.300;2023-04-07T00:02:20;101719.09;;;8.65;65.84
64368;BME280;50692;53.314;-6.300;2023-04-07T00:05:06;101724.59;;;8.58;66.40
64368;BME280;50692;53.314;-6.300;2023-04-07T00:07:52;101727.41;;;8.52;66.52
64368;BME280;50692;53.314;-6.300;2023-04-07T00:10:38;101730.22;;;8.46;66.68
64368;BME280;50692;53.314;-6.300;2023-04-07T00:13:24;101730.41;;;8.38;66.99
64368;BME280;50692;53.314;-6.300;2023-04-07T00:16:10;101691.81;;;8.04;67.51
64368;BME280;50692;53.314;-6.300;2023-04-07T00:18:56;101726.66;;;8.14;67.48
64368;BME280;50692;53.314;-6.300;2023-04-07T00:21:42;101728.25;;;8.20;67.30
64368;BME280;50692;53.314;-6.300;2023-04-07T00:24:28;101721.19;;;8.22;67.28
64368;BME280;50692;53.314;-6.300;2023-04-07T00:27:13;101723.03;;;8.18;67.26
64368;BME280;50692;53.314;-6.300;2023-04-07T00:30:00;101722.13;;;8.19;67.41
64368;BME280;50692;53.314;-6.300;2023-04-07T00:32:45;101725.13;;;8.05;67.66
64368;BME280;50692;53.314;-6.300;2023-04-07T00:35:31;101720.84;;;8.01;68.03
64368;BME280;50692;53.314;-6.300;2023-04-07T00:38:17;101720.03;;;7.99;67.94
64368;BME280;50692;53.314;-6.300;2023-04-07T00:41:03;101715.59;;;8.01;67.89
64368;BME280;50692;53.314;-6.300;2023-04-07T00:43:50;101709.59;;;7.94;68.17
64368;BME280;50692;53.314;-6.300;2023-04-07T00:46:36;101717.69;;;7.88;68.59
64368;BME280;50692;53.314;-6.300;2023-04-07T00:49:22;101721.19;;;7.87;68.66
64368;BME280;50692;53.314;-6.300;2023-04-07T00:52:08;101718.69;;;7.83;68.86
64368;BME280;50692;53.314;-6.300;2023-04-07T00:54:56;101716.97;;;7.82;68.95
64368;BME280;50692;53.314;-6.300;2023-04-07T00:57:42;101710.88;;;7.80;68.91
64368;BME280;50692;53.314;-6.300;2023-04-07T01:00:28;101716.19;;;7.78;69.21
64368;BME280;50692;53.314;-6.300;2023-04-07T01:03:32;101710.06;;;7.78;69.40
64368;BME280;50692;53.314;-6.300;2023-04-07T01:06:21;101717.13;;;7.76;69.19
64368;BME280;50692;53.314;-6.300;2023-04-07T01:09:29;101715.41;;;7.75;69.34
64368;BME280;50692;53.314;-6.300;2023-04-07T01:13:00;101713.69;;;7.72;69.35
64368;BME280;50692;53.314;-6.300;2023-04-07T01:15:49;101713.84;;;7.66;69.38
64368;BME280;50692;53.314;-6.300;2023-04-07T01:18:37;101710.28;;;7.68;69.29
64368;BME280;50692;53.314;-6.300;2023-04-07T01:21:25;101708.75;;;7.60;69.18
64368;BME280;50692;53.314;-6.300;2023-04-07T01:27:07;101722.13;;;7.51;69.62
64368;BME280;50692;53.314;-6.300;2023-04-07T01:30:00;101712.47;;;7.51;69.63
64368;BME280;50692;53.314;-6.300;2023-04-07T01:32:50;101711.66;;;7.48;70.39
64368;BME280;50692;53.314;-6.300;2023-04-07T01:35:38;101699.69;;;7.36;70.52
64368;BME280;50692;53.314;-6.300;2023-04-07T01:38:27;101711.97;;;7.35;70.38
64368;BME280;50692;53.314;-6.300;2023-04-07T01:41:14;101706.84;;;7.31;70.43
64368;BME280;50692;53.314;-6.300;2023-04-07T01:44:01;101719.28;;;7.22;71.05
64368;BME280;50692;53.314;-6.300;2023-04-07T01:46:48;101725.63;;;7.14;71.25
64368;BME280;50692;53.314;-6.300;2023-04-07T01:49:37;101719.59;;;7.09;71.47
64368;BME280;50692;53.314;-6.300;2023-04-07T01:52:26;101720.53;;;7.06;71.73
64368;BME280;50692;53.314;-6.300;2023-04-07T01:55:13;101711.75;;;7.07;72.04
64368;BME280;50692;53.314;-6.300;2023-04-07T01:58:03;101717.06;;;7.04;74.27
64368;BME280;50692;53.314;-6.300;2023-04-07T02:00:49;101718.88;;;7.02;72.69
64368;BME280;50692;53.314;-6.300;2023-04-07T02:06:42;101719.75;;;7.03;72.41
64368;BME280;50692;53.314;-6.300;2023-04-07T02:09:31;101712.84;;;6.97;72.60
64368;BME280;50692;53.314;-6.300;2023-04-07T02:12:20;101712.16;;;6.87;73.15
64368;BME280;50692;53.314;-6.300;2023-04-07T02:15:07;101714.75;;;6.90;72.83
64368;BME280;50692;53.314;-6.300;2023-04-07T02:17:56;101704.28;;;6.87;73.07
64368;BME280;50692;53.314;-6.300;2023-04-07T02:20:43;101695.59;;;6.85;72.79
64368;BME280;50692;53.314;-6.300;2023-04-07T02:23:34;101703.50;;;6.84;73.06
64368;BME280;50692;53.314;-6.300;2023-04-07T02:26:20;101705.31;;;6.80;72.93
64368;BME280;50692;53.314;-6.300;2023-04-07T02:29:06;101711.53;;;6.78;73.27
64368;BME280;50692;53.314;-6.300;2023-04-07T02:31:52;101710.75;;;6.72;73.60
64368;BME280;50692;53.314;-6.300;2023-04-07T02:34:37;101706.56;;;6.64;73.66
64368;BME280;50692;53.314;-6.300;2023-04-07T02:37:23;101703.94;;;6.62;74.11
64368;BME280;50692;53.314;-6.300;2023-04-07T02:40:09;101711.72;;;6.68;73.85
64368;BME280;50692;53.314;-6.300;2023-04-07T02:42:55;101706.50;;;6.67;74.05
64368;BME280;50692;53.314;-6.300;2023-04-07T02:45:41;101704.69;;;6.69;74.08
64368;BME280;50692;53.314;-6.300;2023-04-07T02:48:27;101702.91;;;6.69;74.00
64368;BME280;50692;53.314;-6.300;2023-04-07T02:51:13;101709.25;;;6.61;74.57
64368;BME280;50692;53.314;-6.300;2023-04-07T02:53:58;101709.41;;;6.53;75.40
64368;BME280;50692;53.314;-6.300;2023-04-07T02:56:44;101707.75;;;6.47;75.52
64368;BME280;50692;53.314;-6.300;2023-04-07T02:59:31;101707.00;;;6.42;75.86
64368;BME280;50692;53.314;-6.300;2023-04-07T03:02:17;101704.38;;;6.41;75.96
64368;BME280;50692;53.314;-6.300;2023-04-07T03:05:03;101703.56;;;6.39;76.30
64368;BME280;50692;53.314;-6.300;2023-04-07T03:07:49;101693.97;;;6.36;76.15
64368;BME280;50692;53.314;-6.300;2023-04-07T03:10:35;101702.81;;;6.32;76.49
64368;BME280;50692;53.314;-6.300;2023-04-07T03:13:21;101698.41;;;6.34;76.22
64368;BME280;50692;53.314;-6.300;2023-04-07T03:16:07;101694.97;;;6.31;76.67
64368;BME280;50692;53.314;-6.300;2023-04-07T03:18:52;101705.53;;;6.28;76.99
64368;BME280;50692;53.314;-6.300;2023-04-07T03:21:38;101703.66;;;6.34;76.51
64368;BME280;50692;53.314;-6.300;2023-04-07T03:24:24;101693.16;;;6.33;76.93
64368;BME280;50692;53.314;-6.300;2023-04-07T03:27:10;101696.88;;;6.22;77.35
64368;BME280;50692;53.314;-6.300;2023-04-07T03:29:56;101702.25;;;6.16;77.93
64368;BME280;50692;53.314;-6.300;2023-04-07T03:32:42;101700.53;;;6.14;77.52
64368;BME280;50692;53.314;-6.300;2023-04-07T03:35:27;101704.09;;;6.11;77.73
64368;BME280;50692;53.314;-6.300;2023-04-07T03:38:13;101702.41;;;6.07;78.11
64368;BME280;50692;53.314;-6.300;2023-04-07T03:40:59;101705.03;;;6.07;78.24
64368;BME280;50692;53.314;-6.300;2023-04-07T03:43:45;101701.56;;;6.05;78.24
64368;BME280;50692;53.314;-6.300;2023-04-07T03:46:31;101702.31;;;6.12;77.71
64368;BME280;50692;53.314;-6.300;2023-04-07T03:49:17;101702.25;;;6.16;77.31
64368;BME280;50692;53.314;-6.300;2023-04-07T03:52:03;101697.91;;;6.14;77.27
64368;BME280;50692;53.314;-6.300;2023-04-07T03:54:49;101698.81;;;6.13;77.21
64368;BME280;50692;53.314;-6.300;2023-04-07T03:57:35;101707.59;;;6.10;77.38
64368;BME280;50692;53.314;-6.300;2023-04-07T04:00:21;101691.16;;;6.02;77.50
64368;BME280;50692;53.314;-6.300;2023-04-07T04:03:07;101699.03;;;6.02;77.55
64368;BME280;50692;53.314;-6.300;2023-04-07T04:05:53;101696.31;;;6.05;77.48
64368;BME280;50692;53.314;-6.300;2023-04-07T04:08:39;101685.00;;;6.01;77.69
64368;BME280;50692;53.314;-6.300;2023-04-07T04:11:25;101690.28;;;6.00;78.35
64368;BME280;50692;53.314;-6.300;2023-04-07T04:14:11;101691.22;;;5.97;78.25
64368;BME280;50692;53.314;-6.300;2023-04-07T04:16:57;101694.78;;;5.93;78.21
64368;BME280;50692;53.314;-6.300;2023-04-07T04:19:43;101692.22;;;5.89;78.23
64368;BME280;50692;53.314;-6.300;2023-04-07T04:22:29;101690.59;;;5.82;78.54
64368;BME280;50692;53.314;-6.300;2023-04-07T04:25:16;101690.69;;;5.77;78.83
64368;BME280;50692;53.314;-6.300;2023-04-07T04:28:02;101685.44;;;5.77;79.23
64368;BME280;50692;53.314;-6.300;2023-04-07T04:30:47;101693.22;;;5.80;79.33
64368;BME280;50692;53.314;-6.300;2023-04-07T04:33:33;101688.88;;;5.79;79.05
64368;BME280;50692;53.314;-6.300;2023-04-07T04:36:19;101690.59;;;5.80;78.98
64368;BME280;50692;53.314;-6.300;2023-04-07T04:39:05;101689.75;;;5.80;79.06
64368;BME280;50692;53.314;-6.300;2023-04-07T04:41:51;101685.50;;;5.74;79.14
64368;BME280;50692;53.314;-6.300;2023-04-07T04:44:37;101692.47;;;5.75;79.16
64368;BME280;50692;53.314;-6.300;2023-04-07T04:47:23;101689.06;;;5.70;79.65
64368;BME280;50692;53.314;-6.300;2023-04-07T04:50:09;101693.50;;;5.66;79.32
64368;BME280;50692;53.314;-6.300;2023-04-07T04:52:55;101695.22;;;5.67;79.36
64368;BME280;50692;53.314;-6.300;2023-04-07T04:55:41;101697.03;;;5.62;79.71
64368;BME280;50692;53.314;-6.300;2023-04-07T04:58:31;101697.94;;;5.61;80.43
64368;BME280;50692;53.314;-6.300;2023-04-07T05:01:17;101692.69;;;5.61;79.93
64368;BME280;50692;53.314;-6.300;2023-04-07T05:04:03;101697.03;;;5.62;80.01
64368;BME280;50692;53.314;-6.300;2023-04-07T05:06:50;101697.13;;;5.59;79.85
64368;BME280;50692;53.314;-6.300;2023-04-07T05:09:35;101694.50;;;5.58;79.89
64368;BME280;50692;53.314;-6.300;2023-04-07T05:12:21;101697.16;;;5.56;79.99
64368;BME280;50692;53.314;-6.300;2023-04-07T05:15:07;101703.31;;;5.53;79.90
64368;BME280;50692;53.314;-6.300;2023-04-07T05:17:53;101698.16;;;5.49;79.85
64368;BME280;50692;53.314;-6.300;2023-04-07T05:20:40;101704.31;;;5.46;79.93
64368;BME280;50692;53.314;-6.300;2023-04-07T05:23:26;101702.56;;;5.45;79.64
64368;BME280;50692;53.314;-6.300;2023-04-07T05:26:12;101700.88;;;5.43;80.17
64368;BME280;50692;53.314;-6.300;2023-04-07T05:28:58;101710.50;;;5.41;80.20
64368;BME280;50692;53.314;-6.300;2023-04-07T05:31:43;101700.81;;;5.44;79.85
64368;BME280;50692;53.314;-6.300;2023-04-07T05:34:29;101697.50;;;5.35;79.91
64368;BME280;50692;53.314;-6.300;2023-04-07T05:37:15;101712.34;;;5.36;80.28
64368;BME280;50692;53.314;-6.300;2023-04-07T05:40:01;101708.91;;;5.32;80.42
64368;BME280;50692;53.314;-6.300;2023-04-07T05:42:47;101714.09;;;5.34;80.46
64368;BME280;50692;53.314;-6.300;2023-04-07T05:45:33;101711.47;;;5.34;80.14
64368;BME280;50692;53.314;-6.300;2023-04-07T05:48:19;101716.72;;;5.34;80.31
64368;BME280;50692;53.314;-6.300;2023-04-07T05:51:04;101714.22;;;5.27;81.24
64368;BME280;50692;53.314;-6.300;2023-04-07T05:53:50;101716.78;;;5.31;80.97
64368;BME280;50692;53.314;-6.300;2023-04-07T05:56:36;101711.56;;;5.29;81.21
64368;BME280;50692;53.314;-6.300;2023-04-07T05:59:22;101717.66;;;5.31;81.17
64368;BME280;50692;53.314;-6.300;2023-04-07T06:02:07;101714.13;;;5.32;81.04
64368;BME280;50692;53.314;-6.300;2023-04-07T06:04:53;101712.41;;;5.29;81.28
64368;BME280;50692;53.314;-6.300;2023-04-07T06:07:39;101725.53;;;5.31;81.54
64368;BME280;50692;53.314;-6.300;2023-04-07T06:10:25;101722.88;;;5.34;81.28
64368;BME280;50692;53.314;-6.300;2023-04-07T06:13:11;101702.91;;;5.22;81.85
64368;BME280;50692;53.314;-6.300;2023-04-07T06:15:57;101722.88;;;5.33;81.94
64368;BME280;50692;53.314;-6.300;2023-04-07T06:18:42;101714.19;;;5.31;82.49
64368;BME280;50692;53.314;-6.300;2023-04-07T06:21:28;101721.09;;;5.35;82.50
64368;BME280;50692;53.314;-6.300;2023-04-07T06:24:15;101725.41;;;5.37;82.56
64368;BME280;50692;53.314;-6.300;2023-04-07T06:27:01;101716.72;;;5.34;82.80
64368;BME280;50692;53.314;-6.300;2023-04-07T06:29:48;101731.44;;;5.44;82.63
64368;BME280;50692;53.314;-6.300;2023-04-07T06:32:34;101732.25;;;5.49;82.54
64368;BME280;50692;53.314;-6.300;2023-04-07T06:35:20;101739.13;;;5.56;82.17
64368;BME280;50692;53.314;-6.300;2023-04-07T06:38:06;101729.41;;;5.63;81.99
64368;BME280;50692;53.314;-6.300;2023-04-07T06:40:52;101730.13;;;5.69;81.76
64368;BME280;50692;53.314;-6.300;2023-04-07T06:43:38;101735.28;;;5.75;82.33
64368;BME280;50692;53.314;-6.300;2023-04-07T06:46:24;101737.03;;;5.76;82.03
64368;BME280;50692;53.314;-6.300;2023-04-07T06:49:11;101737.78;;;5.85;82.09
64368;BME280;50692;53.314;-6.300;2023-04-07T06:51:57;101731.53;;;5.92;81.63
64368;BME280;50692;53.314;-6.300;2023-04-07T06:54:43;101731.38;;;6.01;81.65
64368;BME280;50692;53.314;-6.300;2023-04-07T06:57:29;101728.81;;;5.99;81.55
64368;BME280;50692;53.314;-6.300;2023-04-07T07:00:15;101742.50;;;6.15;81.34
64368;BME280;50692;53.314;-6.300;2023-04-07T07:03:01;101729.38;;;6.15;81.39
64368;BME280;50692;53.314;-6.300;2023-04-07T07:05:47;101736.13;;;6.29;81.08
64368;BME280;50692;53.314;-6.300;2023-04-07T07:08:33;101736.00;;;6.36;81.45
64368;BME280;50692;53.314;-6.300;2023-04-07T07:11:19;101727.91;;;6.48;81.01
64368;BME280;50692;53.314;-6.300;2023-04-07T07:14:05;101734.66;;;6.60;81.03
64368;BME280;50692;53.314;-6.300;2023-04-07T07:16:51;101737.00;;;6.72;80.86
64368;BME280;50692;53.314;-6.300;2023-04-07T07:19:37;101737.56;;;6.88;81.07
64368;BME280;50692;53.314;-6.300;2023-04-07T07:22:23;101740.72;;;7.06;80.99
64368;BME280;50692;53.314;-6.300;2023-04-07T07:25:09;101749.97;;;7.24;81.18
64368;BME280;50692;53.314;-6.300;2023-04-07T07:27:56;101737.19;;;7.44;81.38
64368;BME280;50692;53.314;-6.300;2023-04-07T07:30:42;101739.34;;;7.64;81.46
64368;BME280;50692;53.314;-6.300;2023-04-07T07:33:28;101736.22;;;7.84;81.82
64368;BME280;50692;53.314;-6.300;2023-04-07T07:36:13;101732.16;;;8.06;82.26
64368;BME280;50692;53.314;-6.300;2023-04-07T07:38:59;101732.28;;;8.33;82.29
64368;BME280;50692;53.314;-6.300;2023-04-07T07:41:45;101729.78;;;8.61;82.08
64368;BME280;50692;53.314;-6.300;2023-04-07T07:44:31;101736.06;;;8.86;81.93
64368;BME280;50692;53.314;-6.300;2023-04-07T07:47:17;101733.50;;;9.13;81.77
64368;BME280;50692;53.314;-6.300;2023-04-07T07:50:03;101727.53;;;9.36;81.94
64368;BME280;50692;53.314;-6.300;2023-04-07T07:52:50;101735.53;;;9.61;82.08
64368;BME280;50692;53.314;-6.300;2023-04-07T07:55:36;101725.59;;;9.94;81.80
64368;BME280;50692;53.314;-6.300;2023-04-07T07:58:22;101727.28;;;10.22;81.77
64368;BME280;50692;53.314;-6.300;2023-04-07T08:01:08;101724.69;;;10.45;80.86
64368;BME280;50692;53.314;-6.300;2023-04-07T08:03:54;101730.81;;;10.71;80.03
64368;BME280;50692;53.314;-6.300;2023-04-07T08:06:40;101725.75;;;10.88;79.51
64368;BME280;50692;53.314;-6.300;2023-04-07T08:09:26;101689.88;;;10.81;78.38
64368;BME280;50692;53.314;-6.300;2023-04-07T08:12:12;101723.88;;;11.14;77.15
64368;BME280;50692;53.314;-6.300;2023-04-07T08:14:58;101714.50;;;11.28;76.00
64368;BME280;50692;53.314;-6.300;2023-04-07T08:17:44;101722.00;;;11.39;74.85
64368;BME280;50692;53.314;-6.300;2023-04-07T08:20:30;101711.22;;;11.44;72.54
64368;BME280;50692;53.314;-6.300;2023-04-07T08:23:16;101715.22;;;11.54;72.10
64368;BME280;50692;53.314;-6.300;2023-04-07T08:26:02;101710.22;;;11.68;71.62
64368;BME280;50692;53.314;-6.300;2023-04-07T08:28:48;101711.56;;;11.79;71.26
64368;BME280;50692;53.314;-6.300;2023-04-07T08:31:36;101718.34;;;11.86;70.60
64368;BME280;50692;53.314;-6.300;2023-04-07T08:34:22;101706.28;;;11.99;70.04
64368;BME280;50692;53.314;-6.300;2023-04-07T08:37:07;101715.31;;;12.15;69.56
64368;BME280;50692;53.314;-6.300;2023-04-07T08:39:54;101719.88;;;12.32;68.16
64368;BME280;50692;53.314;-6.300;2023-04-07T08:42:41;101711.38;;;12.44;66.64
64368;BME280;50692;53.314;-6.300;2023-04-07T08:45:29;101710.25;;;12.50;65.87
64368;BME280;50692;53.314;-6.300;2023-04-07T08:48:17;101716.91;;;12.59;64.32
64368;BME280;50692;53.314;-6.300;2023-04-07T08:51:05;101716.63;;;12.65;63.99
64368;BME280;50692;53.314;-6.300;2023-04-07T08:53:53;101712.78;;;12.72;62.31
64368;BME280;50692;53.314;-6.300;2023-04-07T08:56:42;101711.25;;;12.85;61.29
64368;BME280;50692;53.314;-6.300;2023-04-07T08:59:28;101702.06;;;12.92;60.04
64368;BME280;50692;53.314;-6.300;2023-04-07T09:02:14;101707.31;;;13.13;59.61
64368;BME280;50692;53.314;-6.300;2023-04-07T09:05:06;101704.88;;;13.27;59.75
64368;BME280;50692;53.314;-6.300;2023-04-07T09:07:52;101700.47;;;13.45;59.31
64368;BME280;50692;53.314;-6.300;2023-04-07T09:10:37;101702.69;;;13.54;58.99
64368;BME280;50692;53.314;-6.300;2023-04-07T09:13:23;101705.50;;;13.68;58.64
64368;BME280;50692;53.314;-6.300;2023-04-07T09:16:10;101702.13;;;13.82;58.39
64368;BME280;50692;53.314;-6.300;2023-04-07T09:18:58;101707.78;;;13.94;58.06
64368;BME280;50692;53.314;-6.300;2023-04-07T09:21:50;101702.81;;;14.03;57.95
64368;BME280;50692;53.314;-6.300;2023-04-07T09:24:37;101689.53;;;14.03;57.10
64368;BME280;50692;53.314;-6.300;2023-04-07T09:27:22;101716.75;;;14.26;56.64
64368;BME280;50692;53.314;-6.300;2023-04-07T09:30:13;101701.84;;;14.39;56.30
64368;BME280;50692;53.314;-6.300;2023-04-07T09:33:00;101704.09;;;14.47;55.55
64368;BME280;50692;53.314;-6.300;2023-04-07T09:35:52;101703.78;;;14.53;55.55
64368;BME280;50692;53.314;-6.300;2023-04-07T09:38:40;101698.22;;;14.57;55.77
64368;BME280;50692;53.314;-6.300;2023-04-07T09:41:26;101707.59;;;14.64;56.33
64368;BME280;50692;53.314;-6.300;2023-04-07T09:44:12;101687.50;;;14.59;55.69
64368;BME280;50692;53.314;-6.300;2023-04-07T09:46:58;101703.00;;;14.84;54.93
64368;BME280;50692;53.314;-6.300;2023-04-07T09:49:50;101705.31;;;15.22;55.16
64368;BME280;50692;53.314;-6.300;2023-04-07T09:52:49;101708.78;;;15.54;54.23
64368;BME280;50692;53.314;-6.300;2023-04-07T09:55:39;101705.69;;;15.77;54.19
64368;BME280;50692;53.314;-6.300;2023-04-07T09:58:26;101692.41;;;15.76;53.57
64368;BME280;50692;53.314;-6.300;2023-04-07T10:01:13;101703.75;;;15.79;53.67
64368;BME280;50692;53.314;-6.300;2023-04-07T10:03:59;101707.72;;;15.72;53.56
64368;BME280;50692;53.314;-6.300;2023-04-07T10:06:46;101697.72;;;15.62;52.75
64368;BME280;50692;53.314;-6.300;2023-04-07T10:09:32;101705.44;;;15.66;53.78
64368;BME280;50692;53.314;-6.300;2023-04-07T10:12:18;101697.41;;;15.82;53.59
64368;BME280;50692;53.314;-6.300;2023-04-07T10:15:04;101686.59;;;16.14;53.73
64368;BME280;50692;53.314;-6.300;2023-04-07T10:17:52;101699.69;;;16.47;52.11
64368;BME280;50692;53.314;-6.300;2023-04-07T10:20:39;101699.84;;;16.72;51.24
64368;BME280;50692;53.314;-6.300;2023-04-07T10:26:37;101678.69;;;17.25;50.37
64368;BME280;50692;53.314;-6.300;2023-04-07T10:29:25;101685.34;;;17.59;49.71
64368;BME280;50692;53.314;-6.300;2023-04-07T10:32:14;101690.44;;;17.89;48.67
64368;BME280;50692;53.314;-6.300;2023-04-07T10:35:00;101683.63;;;17.98;47.62
64368;BME280;50692;53.314;-6.300;2023-04-07T10:40:52;101690.06;;;18.21;46.38
64368;BME280;50692;53.314;-6.300;2023-04-07T10:43:39;101688.13;;;18.36;46.00
64368;BME280;50692;53.314;-6.300;2023-04-07T10:49:33;101682.56;;;18.39;45.40
64368;BME280;50692;53.314;-6.300;2023-04-07T10:52:21;101676.31;;;18.51;46.17
64368;BME280;50692;53.314;-6.300;2023-04-07T10:58:20;101678.88;;;19.15;45.75
64368;BME280;50692;53.314;-6.300;2023-04-07T11:03:57;101673.28;;;19.42;44.77
64368;BME280;50692;53.314;-6.300;2023-04-07T11:06:46;101663.97;;;19.94;44.49
64368;BME280;50692;53.314;-6.300;2023-04-07T11:09:32;101671.16;;;19.94;43.27
64368;BME280;50692;53.314;-6.300;2023-04-07T11:12:22;101662.75;;;19.98;43.48
64368;BME280;50692;53.314;-6.300;2023-04-07T11:15:19;101657.66;;;20.29;43.64
64368;BME280;50692;53.314;-6.300;2023-04-07T11:18:25;101662.56;;;20.35;43.92
64368;BME280;50692;53.314;-6.300;2023-04-07T11:21:11;101664.25;;;20.36;42.88
64368;BME280;50692;53.314;-6.300;2023-04-07T11:23:57;101663.41;;;20.35;41.55
64368;BME280;50692;53.314;-6.300;2023-04-07T11:26:44;101659.50;;;20.40;41.78
64368;BME280;50692;53.314;-6.300;2023-04-07T11:29:30;101648.00;;;20.04;43.17
64368;BME280;50692;53.314;-6.300;2023-04-07T11:32:21;101646.25;;;19.45;44.24
64368;BME280;50692;53.314;-6.300;2023-04-07T11:35:10;101670.06;;;18.89;44.59
64368;BME280;50692;53.314;-6.300;2023-04-07T11:37:59;101668.66;;;18.21;45.32
64368;BME280;50692;53.314;-6.300;2023-04-07T11:40:46;101670.94;;;17.74;46.65
64368;BME280;50692;53.314;-6.300;2023-04-07T11:43:32;101664.63;;;17.36;47.94
64368;BME280;50692;53.314;-6.300;2023-04-07T11:46:18;101662.47;;;17.55;48.76
64368;BME280;50692;53.314;-6.300;2023-04-07T11:49:11;101662.31;;;17.84;48.23
64368;BME280;50692;53.314;-6.300;2023-04-07T11:55:03;101657.63;;;17.60;48.70
64368;BME280;50692;53.314;-6.300;2023-04-07T11:57:49;101660.94;;;17.91;47.39
64368;BME280;50692;53.314;-6.300;2023-04-07T12:00:52;101668.84;;;18.43;47.83
64368;BME280;50692;53.314;-6.300;2023-04-07T12:03:54;101668.69;;;18.83;46.09
64368;BME280;50692;53.314;-6.300;2023-04-07T12:06:42;101661.53;;;18.58;46.73
64368;BME280;50692;53.314;-6.300;2023-04-07T12:09:33;101665.84;;;18.22;47.20
64368;BME280;50692;53.314;-6.300;2023-04-07T12:12:27;101661.56;;;18.33;46.42
64368;BME280;50692;53.314;-6.300;2023-04-07T12:15:13;101670.50;;;18.83;46.30
64368;BME280;50692;53.314;-6.300;2023-04-07T12:17:59;101663.88;;;19.36;45.27
64368;BME280;50692;53.314;-6.300;2023-04-07T12:20:46;101666.13;;;19.78;44.05
64368;BME280;50692;53.314;-6.300;2023-04-07T12:23:31;101665.94;;;20.03;42.60
64368;BME280;50692;53.314;-6.300;2023-04-07T12:26:17;101662.91;;;20.19;41.78
64368;BME280;50692;53.314;-6.300;2023-04-07T12:29:03;101658.50;;;19.96;42.63
64368;BME280;50692;53.314;-6.300;2023-04-07T12:31:49;101659.25;;;19.62;42.99
64368;BME280;50692;53.314;-6.300;2023-04-07T12:34:36;101662.13;;;19.24;42.45
64368;BME280;50692;53.314;-6.300;2023-04-07T12:37:22;101662.19;;;18.75;42.61
64368;BME280;50692;53.314;-6.300;2023-04-07T12:40:08;101666.44;;;18.64;42.51
64368;BME280;50692;53.314;-6.300;2023-04-07T12:42:54;101660.66;;;18.83;42.69
64368;BME280;50692;53.314;-6.300;2023-04-07T12:45:42;101665.38;;;19.52;41.75
64368;BME280;50692;53.314;-6.300;2023-04-07T12:48:28;101659.56;;;19.93;41.16
64368;BME280;50692;53.314;-6.300;2023-04-07T12:51:14;101655.22;;;20.15;40.97
64368;BME280;50692;53.314;-6.300;2023-04-07T12:54:00;101655.44;;;19.89;41.43
64368;BME280;50692;53.314;-6.300;2023-04-07T12:56:46;101660.06;;;19.28;42.65
64368;BME280;50692;53.314;-6.300;2023-04-07T12:59:32;101663.91;;;18.37;43.58
64368;BME280;50692;53.314;-6.300;2023-04-07T13:02:19;101659.13;;;17.52;45.01
64368;BME280;50692;53.314;-6.300;2023-04-07T13:05:06;101659.72;;;17.15;45.82
64368;BME280;50692;53.314;-6.300;2023-04-07T13:07:51;101676.25;;;16.81;47.20
64368;BME280;50692;53.314;-6.300;2023-04-07T13:10:38;101670.81;;;16.53;47.74
64368;BME280;50692;53.314;-6.300;2023-04-07T13:13:23;101655.66;;;16.40;47.83
64368;BME280;50692;53.314;-6.300;2023-04-07T13:16:10;101666.72;;;16.62;47.71
64368;BME280;50692;53.314;-6.300;2023-04-07T13:18:56;101664.22;;;16.73;47.92
64368;BME280;50692;53.314;-6.300;2023-04-07T13:21:42;101661.09;;;16.81;47.87
64368;BME280;50692;53.314;-6.300;2023-04-07T13:24:29;101646.78;;;17.36;47.24
64368;BME280;50692;53.314;-6.300;2023-04-07T13:27:14;101662.66;;;17.92;44.49
64368;BME280;50692;53.314;-6.300;2023-04-07T13:30:00;101653.84;;;18.41;42.94
64368;BME280;50692;53.314;-6.300;2023-04-07T13:32:46;101661.50;;;18.84;41.68
64368;BME280;50692;53.314;-6.300;2023-04-07T13:35:33;101651.03;;;18.81;40.71
64368;BME280;50692;53.314;-6.300;2023-04-07T13:38:20;101630.53;;;18.30;41.52
64368;BME280;50692;53.314;-6.300;2023-04-07T13:41:06;101646.81;;;18.14;41.87
64368;BME280;50692;53.314;-6.300;2023-04-07T13:43:52;101640.72;;;18.00;41.65
64368;BME280;50692;53.314;-6.300;2023-04-07T13:46:37;101645.44;;;17.69;41.71
64368;BME280;50692;53.314;-6.300;2023-04-07T13:49:25;101648.56;;;17.23;42.10
64368;BME280;50692;53.314;-6.300;2023-04-07T13:52:10;101640.38;;;17.12;41.76
64368;BME280;50692;53.314;-6.300;2023-04-07T13:54:57;101646.66;;;16.98;42.10
64368;BME280;50692;53.314;-6.300;2023-04-07T13:57:43;101641.84;;;17.03;42.49
64368;BME280;50692;53.314;-6.300;2023-04-07T14:00:29;101646.13;;;17.33;41.72
64368;BME280;50692;53.314;-6.300;2023-04-07T14:03:15;101645.03;;;17.75;40.43
64368;BME280;50692;53.314;-6.300;2023-04-07T14:06:01;101633.91;;;18.58;39.63
64368;BME280;50692;53.314;-6.300;2023-04-07T14:08:49;101640.25;;;19.41;38.21
64368;BME280;50692;53.314;-6.300;2023-04-07T14:11:35;101635.16;;;19.74;36.97
64368;BME280;50692;53.314;-6.300;2023-04-07T14:14:21;101636.41;;;19.92;36.23
64368;BME280;50692;53.314;-6.300;2023-04-07T14:17:07;101639.91;;;19.46;36.14
64368;BME280;50692;53.314;-6.300;2023-04-07T14:19:53;101633.47;;;19.49;36.29
64368;BME280;50692;53.314;-6.300;2023-04-07T14:22:38;101628.34;;;19.46;35.77
64368;BME280;50692;53.314;-6.300;2023-04-07T14:25:24;101637.31;;;19.09;36.81
64368;BME280;50692;53.314;-6.300;2023-04-07T14:28:10;101620.72;;;19.28;37.34
64368;BME280;50692;53.314;-6.300;2023-04-07T14:30:56;101619.41;;;19.69;35.86
64368;BME280;50692;53.314;-6.300;2023-04-07T14:33:43;101608.81;;;19.79;35.27
64368;BME280;50692;53.314;-6.300;2023-04-07T14:36:29;101619.78;;;19.76;35.10
64368;BME280;50692;53.314;-6.300;2023-04-07T14:39:15;101617.13;;;19.52;35.40
64368;BME280;50692;53.314;-6.300;2023-04-07T14:42:01;101622.72;;;19.13;35.58
64368;BME280;50692;53.314;-6.300;2023-04-07T14:44:47;101613.59;;;18.92;36.29
64368;BME280;50692;53.314;-6.300;2023-04-07T14:47:33;101611.28;;;18.75;36.47
64368;BME280;50692;53.314;-6.300;2023-04-07T14:50:19;101611.06;;;18.28;36.98
64368;BME280;50692;53.314;-6.300;2023-04-07T14:53:04;101605.09;;;17.99;37.38